Elmhurst, Pennsylvania
Current Conditions -  °F | °C
As of 5:54 AM on Friday 19 Dec 2014 (Local Time) from KAVP Reporting Station
Overcast Overcast  
Wind Chill: 24°   Ceiling: 2400
Heat Index: 32°   Visibility: 10mi
Dew Point: 24°   Wind: 10mph
Humidity: 73%   Direction: 320°NW
Pressure: 30"   Gusts: NA
Location:  41.38°N, 75.54°W
Report Text: KAVP 191054Z AUTO 32009KT 10SM OVC024 00/M04 A3000 RMK AO2 UPB02E15SNB15E31 SLP166 P0000 T00001044
Loading
Personal Weather Stations






























Interactive Weather Map New forecast layout! Learn more

10-Day Weather Forecast

Advertisements
Track Severe Weather on mobile